sensor_id;sensor_type;location;lat;lon;timestamp;P1;durP1;ratioP1;P2;durP2;ratioP2
11548;SDS011;61444;59.472;18.306;2022-07-15T00:00:08;1.17;;;0.80;;
11548;SDS011;61444;59.472;18.306;2022-07-15T00:02:17;0.70;;;0.60;;
11548;SDS011;61444;59.472;18.306;2022-07-15T00:04:26;0.60;;;0.60;;
11548;SDS011;61444;59.472;18.306;2022-07-15T00:06:35;1.80;;;0.60;;
11548;SDS011;61444;59.472;18.306;2022-07-15T00:08:43;0.50;;;0.50;;
11548;SDS011;61444;59.472;18.306;2022-07-15T00:10:53;0.60;;;0.60;;
11548;SDS011;61444;59.472;18.306;2022-07-15T00:13:02;0.70;;;0.70;;
11548;SDS011;61444;59.472;18.306;2022-07-15T00:15:11;1.03;;;0.60;;
11548;SDS011;61444;59.472;18.306;2022-07-15T00:17:20;0.70;;;0.70;;
11548;SDS011;61444;59.472;18.306;2022-07-15T00:19:29;0.63;;;0.60;;
11548;SDS011;61444;59.472;18.306;2022-07-15T00:21:38;1.13;;;0.70;;
11548;SDS011;61444;59.472;18.306;2022-07-15T00:23:49;0.60;;;0.60;;
11548;SDS011;61444;59.472;18.306;2022-07-15T00:25:59;0.53;;;0.53;;
11548;SDS011;61444;59.472;18.306;2022-07-15T00:28:08;3.10;;;0.60;;
11548;SDS011;61444;59.472;18.306;2022-07-15T00:30:16;1.43;;;0.60;;
11548;SDS011;61444;59.472;18.306;2022-07-15T00:32:26;0.80;;;0.67;;
11548;SDS011;61444;59.472;18.306;2022-07-15T00:34:35;0.77;;;0.77;;
11548;SDS011;61444;59.472;18.306;2022-07-15T00:36:43;1.47;;;0.60;;
11548;SDS011;61444;59.472;18.306;2022-07-15T00:38:52;0.50;;;0.50;;
11548;SDS011;61444;59.472;18.306;2022-07-15T00:41:02;1.10;;;0.63;;
11548;SDS011;61444;59.472;18.306;2022-07-15T00:43:11;0.67;;;0.67;;
11548;SDS011;61444;59.472;18.306;2022-07-15T00:45:23;0.87;;;0.60;;
11548;SDS011;61444;59.472;18.306;2022-07-15T00:47:32;1.10;;;0.60;;
11548;SDS011;61444;59.472;18.306;2022-07-15T00:49:41;4.13;;;0.70;;
11548;SDS011;61444;59.472;18.306;2022-07-15T00:51:50;2.00;;;0.77;;
11548;SDS011;61444;59.472;18.306;2022-07-15T00:53:59;0.57;;;0.57;;
11548;SDS011;61444;59.472;18.306;2022-07-15T00:56:10;0.93;;;0.60;;
11548;SDS011;61444;59.472;18.306;2022-07-15T00:58:20;0.60;;;0.53;;
11548;SDS011;61444;59.472;18.306;2022-07-15T01:00:30;0.70;;;0.70;;
11548;SDS011;61444;59.472;18.306;2022-07-15T01:02:39;2.17;;;0.90;;
11548;SDS011;61444;59.472;18.306;2022-07-15T01:04:50;1.33;;;0.70;;
11548;SDS011;61444;59.472;18.306;2022-07-15T01:06:59;1.73;;;0.70;;
11548;SDS011;61444;59.472;18.306;2022-07-15T01:09:08;0.70;;;0.70;;
11548;SDS011;61444;59.472;18.306;2022-07-15T01:11:18;1.20;;;0.60;;
11548;SDS011;61444;59.472;18.306;2022-07-15T01:13:27;0.60;;;0.60;;
11548;SDS011;61444;59.472;18.306;2022-07-15T01:15:36;1.50;;;0.70;;
11548;SDS011;61444;59.472;18.306;2022-07-15T01:17:45;0.73;;;0.60;;
11548;SDS011;61444;59.472;18.306;2022-07-15T01:19:54;1.53;;;0.80;;
11548;SDS011;61444;59.472;18.306;2022-07-15T01:22:04;0.80;;;0.70;;
11548;SDS011;61444;59.472;18.306;2022-07-15T01:24:13;0.87;;;0.63;;
11548;SDS011;61444;59.472;18.306;2022-07-15T01:26:22;0.60;;;0.60;;
11548;SDS011;61444;59.472;18.306;2022-07-15T01:28:31;1.33;;;0.60;;
11548;SDS011;61444;59.472;18.306;2022-07-15T01:30:39;0.77;;;0.60;;
11548;SDS011;61444;59.472;18.306;2022-07-15T01:32:48;0.60;;;0.60;;
11548;SDS011;61444;59.472;18.306;2022-07-15T01:34:58;1.90;;;0.60;;
11548;SDS011;61444;59.472;18.306;2022-07-15T01:37:07;3.07;;;0.60;;
11548;SDS011;61444;59.472;18.306;2022-07-15T01:39:16;0.80;;;0.80;;
11548;SDS011;61444;59.472;18.306;2022-07-15T01:41:43;0.70;;;0.70;;
11548;SDS011;61444;59.472;18.306;2022-07-15T01:43:52;0.80;;;0.60;;
11548;SDS011;61444;59.472;18.306;2022-07-15T01:46:00;0.73;;;0.60;;
11548;SDS011;61444;59.472;18.306;2022-07-15T01:48:09;1.73;;;0.73;;
11548;SDS011;61444;59.472;18.306;2022-07-15T01:50:38;1.53;;;0.70;;
11548;SDS011;61444;59.472;18.306;2022-07-15T01:52:47;0.60;;;0.60;;
11548;SDS011;61444;59.472;18.306;2022-07-15T01:54:57;0.60;;;0.60;;
11548;SDS011;61444;59.472;18.306;2022-07-15T01:57:06;0.60;;;0.60;;
11548;SDS011;61444;59.472;18.306;2022-07-15T01:59:15;0.60;;;0.60;;
11548;SDS011;61444;59.472;18.306;2022-07-15T02:01:24;1.33;;;0.60;;
11548;SDS011;61444;59.472;18.306;2022-07-15T02:03:33;0.53;;;0.50;;
11548;SDS011;61444;59.472;18.306;2022-07-15T02:05:41;0.60;;;0.60;;
11548;SDS011;61444;59.472;18.306;2022-07-15T02:07:52;0.60;;;0.60;;
11548;SDS011;61444;59.472;18.306;2022-07-15T02:10:01;1.07;;;0.60;;
11548;SDS011;61444;59.472;18.306;2022-07-15T02:12:10;0.70;;;0.70;;
11548;SDS011;61444;59.472;18.306;2022-07-15T02:14:19;0.50;;;0.50;;
11548;SDS011;61444;59.472;18.306;2022-07-15T02:16:28;0.77;;;0.40;;
11548;SDS011;61444;59.472;18.306;2022-07-15T02:18:37;0.60;;;0.60;;
11548;SDS011;61444;59.472;18.306;2022-07-15T02:20:45;0.50;;;0.50;;
11548;SDS011;61444;59.472;18.306;2022-07-15T02:22:55;0.50;;;0.50;;
11548;SDS011;61444;59.472;18.306;2022-07-15T02:25:04;0.50;;;0.50;;
11548;SDS011;61444;59.472;18.306;2022-07-15T02:27:15;0.50;;;0.50;;
11548;SDS011;61444;59.472;18.306;2022-07-15T02:29:24;3.13;;;0.50;;
11548;SDS011;61444;59.472;18.306;2022-07-15T02:31:32;0.60;;;0.60;;
11548;SDS011;61444;59.472;18.306;2022-07-15T02:33:41;0.93;;;0.53;;
11548;SDS011;61444;59.472;18.306;2022-07-15T02:35:50;0.60;;;0.60;;
11548;SDS011;61444;59.472;18.306;2022-07-15T02:38:00;0.43;;;0.43;;
11548;SDS011;61444;59.472;18.306;2022-07-15T02:40:09;0.60;;;0.50;;
11548;SDS011;61444;59.472;18.306;2022-07-15T02:42:18;0.60;;;0.60;;
11548;SDS011;61444;59.472;18.306;2022-07-15T02:44:27;0.50;;;0.50;;
11548;SDS011;61444;59.472;18.306;2022-07-15T02:46:36;0.50;;;0.50;;
11548;SDS011;61444;59.472;18.306;2022-07-15T02:48:45;0.40;;;0.40;;
11548;SDS011;61444;59.472;18.306;2022-07-15T02:50:54;0.63;;;0.50;;
11548;SDS011;61444;59.472;18.306;2022-07-15T02:53:03;1.40;;;0.50;;
11548;SDS011;61444;59.472;18.306;2022-07-15T02:55:12;1.80;;;0.50;;
11548;SDS011;61444;59.472;18.306;2022-07-15T02:57:21;0.50;;;0.50;;
11548;SDS011;61444;59.472;18.306;2022-07-15T02:59:30;0.63;;;0.60;;
11548;SDS011;61444;59.472;18.306;2022-07-15T03:01:38;0.50;;;0.50;;
11548;SDS011;61444;59.472;18.306;2022-07-15T03:03:47;0.60;;;0.60;;
11548;SDS011;61444;59.472;18.306;2022-07-15T03:05:55;1.77;;;0.60;;
11548;SDS011;61444;59.472;18.306;2022-07-15T03:08:07;1.87;;;0.77;;
11548;SDS011;61444;59.472;18.306;2022-07-15T03:10:15;1.40;;;0.73;;
11548;SDS011;61444;59.472;18.306;2022-07-15T03:12:24;2.60;;;0.50;;
11548;SDS011;61444;59.472;18.306;2022-07-15T03:14:32;0.50;;;0.50;;
11548;SDS011;61444;59.472;18.306;2022-07-15T03:16:41;0.60;;;0.60;;
11548;SDS011;61444;59.472;18.306;2022-07-15T03:18:50;1.10;;;0.57;;
11548;SDS011;61444;59.472;18.306;2022-07-15T03:20:58;0.80;;;0.60;;
11548;SDS011;61444;59.472;18.306;2022-07-15T03:23:08;2.00;;;0.60;;
11548;SDS011;61444;59.472;18.306;2022-07-15T03:25:17;1.57;;;0.60;;
11548;SDS011;61444;59.472;18.306;2022-07-15T03:27:26;0.60;;;0.60;;
11548;SDS011;61444;59.472;18.306;2022-07-15T03:29:34;0.77;;;0.60;;
11548;SDS011;61444;59.472;18.306;2022-07-15T03:31:44;0.77;;;0.60;;
11548;SDS011;61444;59.472;18.306;2022-07-15T03:33:52;1.37;;;0.60;;
11548;SDS011;61444;59.472;18.306;2022-07-15T03:36:02;0.50;;;0.50;;
11548;SDS011;61444;59.472;18.306;2022-07-15T03:38:12;0.80;;;0.80;;
11548;SDS011;61444;59.472;18.306;2022-07-15T03:40:24;0.60;;;0.60;;
11548;SDS011;61444;59.472;18.306;2022-07-15T03:42:32;3.40;;;0.63;;
11548;SDS011;61444;59.472;18.306;2022-07-15T03:44:41;0.63;;;0.57;;
11548;SDS011;61444;59.472;18.306;2022-07-15T03:46:49;1.13;;;0.60;;
11548;SDS011;61444;59.472;18.306;2022-07-15T03:48:59;0.80;;;0.60;;
11548;SDS011;61444;59.472;18.306;2022-07-15T03:51:08;0.97;;;0.53;;
11548;SDS011;61444;59.472;18.306;2022-07-15T03:53:19;2.47;;;0.50;;
11548;SDS011;61444;59.472;18.306;2022-07-15T03:55:29;0.50;;;0.50;;
11548;SDS011;61444;59.472;18.306;2022-07-15T03:57:38;0.50;;;0.50;;
11548;SDS011;61444;59.472;18.306;2022-07-15T03:59:46;1.57;;;0.60;;
11548;SDS011;61444;59.472;18.306;2022-07-15T04:01:55;2.30;;;0.60;;
11548;SDS011;61444;59.472;18.306;2022-07-15T04:04:04;0.50;;;0.50;;
11548;SDS011;61444;59.472;18.306;2022-07-15T04:06:12;1.43;;;0.50;;
11548;SDS011;61444;59.472;18.306;2022-07-15T04:08:22;1.27;;;0.60;;
11548;SDS011;61444;59.472;18.306;2022-07-15T04:10:31;1.23;;;0.63;;
11548;SDS011;61444;59.472;18.306;2022-07-15T04:12:40;0.40;;;0.40;;
11548;SDS011;61444;59.472;18.306;2022-07-15T04:14:51;0.70;;;0.50;;
11548;SDS011;61444;59.472;18.306;2022-07-15T04:16:59;1.83;;;0.60;;
11548;SDS011;61444;59.472;18.306;2022-07-15T04:19:08;0.53;;;0.53;;
11548;SDS011;61444;59.472;18.306;2022-07-15T04:21:16;3.40;;;0.50;;
11548;SDS011;61444;59.472;18.306;2022-07-15T04:23:26;1.57;;;0.70;;
11548;SDS011;61444;59.472;18.306;2022-07-15T04:25:35;3.17;;;0.50;;
11548;SDS011;61444;59.472;18.306;2022-07-15T04:27:43;1.67;;;0.60;;
11548;SDS011;61444;59.472;18.306;2022-07-15T04:29:52;1.70;;;0.50;;
11548;SDS011;61444;59.472;18.306;2022-07-15T04:32:01;0.53;;;0.53;;
11548;SDS011;61444;59.472;18.306;2022-07-15T04:34:09;0.80;;;0.70;;
11548;SDS011;61444;59.472;18.306;2022-07-15T04:36:18;1.93;;;0.50;;
11548;SDS011;61444;59.472;18.306;2022-07-15T04:38:28;2.30;;;0.50;;
11548;SDS011;61444;59.472;18.306;2022-07-15T04:40:37;0.50;;;0.50;;
11548;SDS011;61444;59.472;18.306;2022-07-15T04:42:50;0.60;;;0.40;;
11548;SDS011;61444;59.472;18.306;2022-07-15T04:44:59;1.77;;;0.50;;
11548;SDS011;61444;59.472;18.306;2022-07-15T04:47:10;0.50;;;0.50;;
11548;SDS011;61444;59.472;18.306;2022-07-15T04:49:18;2.47;;;0.60;;
11548;SDS011;61444;59.472;18.306;2022-07-15T04:51:45;1.63;;;0.50;;
11548;SDS011;61444;59.472;18.306;2022-07-15T04:53:55;0.50;;;0.40;;
11548;SDS011;61444;59.472;18.306;2022-07-15T04:56:09;0.83;;;0.50;;
11548;SDS011;61444;59.472;18.306;2022-07-15T04:58:18;1.10;;;0.50;;
11548;SDS011;61444;59.472;18.306;2022-07-15T05:00:26;1.83;;;0.60;;
11548;SDS011;61444;59.472;18.306;2022-07-15T05:02:35;0.50;;;0.50;;
11548;SDS011;61444;59.472;18.306;2022-07-15T05:04:44;1.37;;;0.50;;
11548;SDS011;61444;59.472;18.306;2022-07-15T05:06:53;1.00;;;0.57;;
11548;SDS011;61444;59.472;18.306;2022-07-15T05:09:04;0.50;;;0.50;;
11548;SDS011;61444;59.472;18.306;2022-07-15T05:11:13;0.70;;;0.70;;
11548;SDS011;61444;59.472;18.306;2022-07-15T05:13:22;1.40;;;0.60;;
11548;SDS011;61444;59.472;18.306;2022-07-15T05:15:31;2.37;;;0.80;;
11548;SDS011;61444;59.472;18.306;2022-07-15T05:17:40;1.70;;;0.77;;
11548;SDS011;61444;59.472;18.306;2022-07-15T05:19:49;2.20;;;0.70;;
11548;SDS011;61444;59.472;18.306;2022-07-15T05:21:58;1.00;;;0.60;;
11548;SDS011;61444;59.472;18.306;2022-07-15T05:24:09;1.77;;;0.70;;
11548;SDS011;61444;59.472;18.306;2022-07-15T05:26:35;1.60;;;0.70;;
11548;SDS011;61444;59.472;18.306;2022-07-15T05:28:50;0.83;;;0.50;;
11548;SDS011;61444;59.472;18.306;2022-07-15T05:30:59;0.97;;;0.60;;
11548;SDS011;61444;59.472;18.306;2022-07-15T05:33:07;1.93;;;0.70;;
11548;SDS011;61444;59.472;18.306;2022-07-15T05:35:16;2.60;;;0.63;;
11548;SDS011;61444;59.472;18.306;2022-07-15T05:37:25;0.73;;;0.60;;
11548;SDS011;61444;59.472;18.306;2022-07-15T05:39:35;1.03;;;0.60;;
11548;SDS011;61444;59.472;18.306;2022-07-15T05:41:43;1.40;;;0.77;;
11548;SDS011;61444;59.472;18.306;2022-07-15T05:43:53;1.70;;;0.60;;
11548;SDS011;61444;59.472;18.306;2022-07-15T05:46:02;1.67;;;0.70;;
11548;SDS011;61444;59.472;18.306;2022-07-15T05:48:11;0.67;;;0.53;;
11548;SDS011;61444;59.472;18.306;2022-07-15T05:50:19;1.80;;;0.70;;
11548;SDS011;61444;59.472;18.306;2022-07-15T05:52:29;0.80;;;0.60;;
11548;SDS011;61444;59.472;18.306;2022-07-15T05:54:39;0.97;;;0.80;;
11548;SDS011;61444;59.472;18.306;2022-07-15T05:56:50;1.67;;;0.60;;
11548;SDS011;61444;59.472;18.306;2022-07-15T05:58:58;0.43;;;0.40;;
11548;SDS011;61444;59.472;18.306;2022-07-15T06:01:07;1.03;;;0.60;;
11548;SDS011;61444;59.472;18.306;2022-07-15T06:03:16;3.17;;;0.80;;
11548;SDS011;61444;59.472;18.306;2022-07-15T06:05:24;0.70;;;0.70;;
11548;SDS011;61444;59.472;18.306;2022-07-15T06:07:33;1.20;;;0.70;;
11548;SDS011;61444;59.472;18.306;2022-07-15T06:09:43;0.70;;;0.67;;
11548;SDS011;61444;59.472;18.306;2022-07-15T06:11:52;2.70;;;0.90;;
11548;SDS011;61444;59.472;18.306;2022-07-15T06:14:01;1.60;;;0.67;;
11548;SDS011;61444;59.472;18.306;2022-07-15T06:16:10;1.40;;;0.67;;
11548;SDS011;61444;59.472;18.306;2022-07-15T06:18:18;2.77;;;0.70;;
11548;SDS011;61444;59.472;18.306;2022-07-15T06:20:27;1.40;;;0.63;;
11548;SDS011;61444;59.472;18.306;2022-07-15T06:22:36;0.97;;;0.67;;
11548;SDS011;61444;59.472;18.306;2022-07-15T06:24:46;2.30;;;1.00;;
11548;SDS011;61444;59.472;18.306;2022-07-15T06:26:54;1.43;;;0.73;;
11548;SDS011;61444;59.472;18.306;2022-07-15T06:29:03;1.50;;;0.60;;
11548;SDS011;61444;59.472;18.306;2022-07-15T06:31:11;1.53;;;0.60;;
11548;SDS011;61444;59.472;18.306;2022-07-15T06:33:20;1.30;;;0.60;;
11548;SDS011;61444;59.472;18.306;2022-07-15T06:35:30;0.50;;;0.50;;
11548;SDS011;61444;59.472;18.306;2022-07-15T06:37:39;2.20;;;0.70;;
11548;SDS011;61444;59.472;18.306;2022-07-15T06:39:49;1.50;;;0.60;;
11548;SDS011;61444;59.472;18.306;2022-07-15T06:41:59;2.20;;;0.87;;
11548;SDS011;61444;59.472;18.306;2022-07-15T06:44:08;1.13;;;0.60;;
11548;SDS011;61444;59.472;18.306;2022-07-15T06:46:17;1.10;;;0.60;;
11548;SDS011;61444;59.472;18.306;2022-07-15T06:48:26;0.93;;;0.60;;
11548;SDS011;61444;59.472;18.306;2022-07-15T06:50:35;0.60;;;0.60;;
11548;SDS011;61444;59.472;18.306;2022-07-15T06:52:43;1.33;;;0.70;;
11548;SDS011;61444;59.472;18.306;2022-07-15T06:54:54;0.97;;;0.70;;
11548;SDS011;61444;59.472;18.306;2022-07-15T06:57:03;1.20;;;0.70;;
11548;SDS011;61444;59.472;18.306;2022-07-15T06:59:11;1.50;;;0.70;;
11548;SDS011;61444;59.472;18.306;2022-07-15T07:01:20;1.83;;;0.73;;
11548;SDS011;61444;59.472;18.306;2022-07-15T07:03:29;1.13;;;0.60;;
11548;SDS011;61444;59.472;18.306;2022-07-15T07:05:58;1.00;;;0.70;;
11548;SDS011;61444;59.472;18.306;2022-07-15T07:08:07;1.53;;;0.70;;
11548;SDS011;61444;59.472;18.306;2022-07-15T07:10:17;0.70;;;0.60;;
11548;SDS011;61444;59.472;18.306;2022-07-15T07:12:30;0.50;;;0.50;;
11548;SDS011;61444;59.472;18.306;2022-07-15T07:14:39;2.20;;;0.70;;
11548;SDS011;61444;59.472;18.306;2022-07-15T07:16:48;1.33;;;0.67;;
11548;SDS011;61444;59.472;18.306;2022-07-15T07:18:56;1.57;;;0.70;;
11548;SDS011;61444;59.472;18.306;2022-07-15T07:21:05;2.00;;;0.90;;
11548;SDS011;61444;59.472;18.306;2022-07-15T07:23:13;2.83;;;0.80;;
11548;SDS011;61444;59.472;18.306;2022-07-15T07:25:24;1.97;;;0.80;;
11548;SDS011;61444;59.472;18.306;2022-07-15T07:27:32;1.50;;;0.77;;
11548;SDS011;61444;59.472;18.306;2022-07-15T07:29:41;0.70;;;0.60;;
11548;SDS011;61444;59.472;18.306;2022-07-15T07:31:50;0.80;;;0.63;;
11548;SDS011;61444;59.472;18.306;2022-07-15T07:33:58;1.73;;;0.70;;
11548;SDS011;61444;59.472;18.306;2022-07-15T07:36:07;1.30;;;0.67;;
11548;SDS011;61444;59.472;18.306;2022-07-15T07:38:16;1.23;;;0.70;;
11548;SDS011;61444;59.472;18.306;2022-07-15T07:40:28;1.77;;;0.80;;
11548;SDS011;61444;59.472;18.306;2022-07-15T07:42:36;1.50;;;0.70;;
11548;SDS011;61444;59.472;18.306;2022-07-15T07:44:46;1.80;;;0.80;;
11548;SDS011;61444;59.472;18.306;2022-07-15T07:46:55;1.27;;;0.73;;
11548;SDS011;61444;59.472;18.306;2022-07-15T07:49:03;3.90;;;0.93;;
11548;SDS011;61444;59.472;18.306;2022-07-15T07:51:32;1.30;;;0.90;;
11548;SDS011;61444;59.472;18.306;2022-07-15T07:53:40;2.60;;;0.80;;
11548;SDS011;61444;59.472;18.306;2022-07-15T07:55:50;1.90;;;0.87;;
11548;SDS011;61444;59.472;18.306;2022-07-15T07:57:59;0.87;;;0.70;;
11548;SDS011;61444;59.472;18.306;2022-07-15T08:00:09;1.53;;;0.70;;
11548;SDS011;61444;59.472;18.306;2022-07-15T08:02:19;1.93;;;1.13;;
11548;SDS011;61444;59.472;18.306;2022-07-15T08:04:27;2.00;;;0.80;;
11548;SDS011;61444;59.472;18.306;2022-07-15T08:06:36;1.17;;;1.07;;
11548;SDS011;61444;59.472;18.306;2022-07-15T08:08:45;0.63;;;0.63;;
11548;SDS011;61444;59.472;18.306;2022-07-15T08:10:56;2.20;;;0.90;;
11548;SDS011;61444;59.472;18.306;2022-07-15T08:13:05;1.70;;;0.83;;
11548;SDS011;61444;59.472;18.306;2022-07-15T08:15:14;1.80;;;0.70;;
11548;SDS011;61444;59.472;18.306;2022-07-15T08:17:23;1.07;;;0.70;;
11548;SDS011;61444;59.472;18.306;2022-07-15T08:19:32;1.47;;;0.67;;
11548;SDS011;61444;59.472;18.306;2022-07-15T08:21:41;0.90;;;0.80;;
11548;SDS011;61444;59.472;18.306;2022-07-15T08:23:50;2.47;;;1.00;;
11548;SDS011;61444;59.472;18.306;2022-07-15T08:26:04;1.90;;;0.70;;
11548;SDS011;61444;59.472;18.306;2022-07-15T08:28:14;0.90;;;0.63;;
11548;SDS011;61444;59.472;18.306;2022-07-15T08:30:24;2.53;;;0.77;;
11548;SDS011;61444;59.472;18.306;2022-07-15T08:32:34;1.00;;;0.90;;
11548;SDS011;61444;59.472;18.306;2022-07-15T08:34:43;1.67;;;0.80;;
11548;SDS011;61444;59.472;18.306;2022-07-15T08:36:57;2.07;;;0.87;;
11548;SDS011;61444;59.472;18.306;2022-07-15T08:39:06;1.80;;;0.80;;
11548;SDS011;61444;59.472;18.306;2022-07-15T08:41:16;1.43;;;1.00;;
11548;SDS011;61444;59.472;18.306;2022-07-15T08:43:25;1.97;;;0.87;;
11548;SDS011;61444;59.472;18.306;2022-07-15T08:45:34;1.43;;;0.80;;
11548;SDS011;61444;59.472;18.306;2022-07-15T08:47:44;1.30;;;0.83;;
11548;SDS011;61444;59.472;18.306;2022-07-15T08:49:59;2.77;;;1.10;;
11548;SDS011;61444;59.472;18.306;2022-07-15T08:52:08;1.27;;;0.80;;
11548;SDS011;61444;59.472;18.306;2022-07-15T08:54:18;1.73;;;0.90;;
11548;SDS011;61444;59.472;18.306;2022-07-15T08:56:28;0.80;;;0.70;;
11548;SDS011;61444;59.472;18.306;2022-07-15T08:58:39;1.23;;;0.70;;
11548;SDS011;61444;59.472;18.306;2022-07-15T09:01:06;1.00;;;0.73;;
11548;SDS011;61444;59.472;18.306;2022-07-15T09:03:15;2.00;;;0.87;;
11548;SDS011;61444;59.472;18.306;2022-07-15T09:05:25;2.03;;;0.60;;
11548;SDS011;61444;59.472;18.306;2022-07-15T09:07:39;1.00;;;0.80;;
11548;SDS011;61444;59.472;18.306;2022-07-15T09:10:03;1.70;;;0.80;;
11548;SDS011;61444;59.472;18.306;2022-07-15T09:12:15;1.80;;;0.80;;
11548;SDS011;61444;59.472;18.306;2022-07-15T09:14:25;0.80;;;0.80;;
11548;SDS011;61444;59.472;18.306;2022-07-15T09:16:37;0.90;;;0.70;;
11548;SDS011;61444;59.472;18.306;2022-07-15T09:18:46;0.77;;;0.70;;
11548;SDS011;61444;59.472;18.306;2022-07-15T09:20:55;2.67;;;1.03;;
11548;SDS011;61444;59.472;18.306;2022-07-15T09:23:05;1.13;;;0.90;;
11548;SDS011;61444;59.472;18.306;2022-07-15T09:25:13;1.30;;;0.80;;
11548;SDS011;61444;59.472;18.306;2022-07-15T09:27:30;1.27;;;0.70;;
11548;SDS011;61444;59.472;18.306;2022-07-15T09:29:39;0.93;;;0.80;;
11548;SDS011;61444;59.472;18.306;2022-07-15T09:32:07;1.33;;;0.77;;
11548;SDS011;61444;59.472;18.306;2022-07-15T09:34:33;2.17;;;0.80;;
11548;SDS011;61444;59.472;18.306;2022-07-15T09:36:43;1.33;;;0.97;;
11548;SDS011;61444;59.472;18.306;2022-07-15T09:38:55;3.40;;;0.77;;
11548;SDS011;61444;59.472;18.306;2022-07-15T09:41:04;2.77;;;0.87;;
11548;SDS011;61444;59.472;18.306;2022-07-15T09:43:14;2.73;;;1.10;;
11548;SDS011;61444;59.472;18.306;2022-07-15T09:45:26;1.30;;;0.90;;
11548;SDS011;61444;59.472;18.306;2022-07-15T09:47:34;1.13;;;0.80;;
11548;SDS011;61444;59.472;18.306;2022-07-15T09:49:45;1.03;;;0.80;;
11548;SDS011;61444;59.472;18.306;2022-07-15T09:51:55;2.93;;;1.00;;
11548;SDS011;61444;59.472;18.306;2022-07-15T09:54:04;2.37;;;0.80;;
11548;SDS011;61444;59.472;18.306;2022-07-15T09:56:17;3.00;;;0.77;;
11548;SDS011;61444;59.472;18.306;2022-07-15T09:58:29;1.00;;;0.90;;
11548;SDS011;61444;59.472;18.306;2022-07-15T10:00:39;1.50;;;1.37;;
11548;SDS011;61444;59.472;18.306;2022-07-15T10:02:48;1.83;;;0.90;;
11548;SDS011;61444;59.472;18.306;2022-07-15T10:04:58;3.73;;;0.83;;
11548;SDS011;61444;59.472;18.306;2022-07-15T10:07:09;1.17;;;0.80;;
11548;SDS011;61444;59.472;18.306;2022-07-15T10:09:36;1.70;;;1.03;;
11548;SDS011;61444;59.472;18.306;2022-07-15T10:11:46;1.20;;;0.87;;
11548;SDS011;61444;59.472;18.306;2022-07-15T10:16:36;1.73;;;0.90;;
11548;SDS011;61444;59.472;18.306;2022-07-15T10:18:53;1.30;;;1.00;;
11548;SDS011;61444;59.472;18.306;2022-07-15T10:21:16;1.90;;;0.93;;
11548;SDS011;61444;59.472;18.306;2022-07-15T10:23:38;2.53;;;1.07;;
11548;SDS011;61444;59.472;18.306;2022-07-15T10:26:00;1.53;;;0.90;;
11548;SDS011;61444;59.472;18.306;2022-07-15T10:28:24;1.77;;;0.83;;
11548;SDS011;61444;59.472;18.306;2022-07-15T10:30:41;4.63;;;0.77;;
11548;SDS011;61444;59.472;18.306;2022-07-15T10:33:11;0.73;;;0.70;;
11548;SDS011;61444;59.472;18.306;2022-07-15T10:35:33;2.03;;;0.80;;
11548;SDS011;61444;59.472;18.306;2022-07-15T10:40:24;2.20;;;0.87;;
11548;SDS011;61444;59.472;18.306;2022-07-15T10:43:19;1.13;;;0.80;;
11548;SDS011;61444;59.472;18.306;2022-07-15T10:46:02;0.80;;;0.80;;
11548;SDS011;61444;59.472;18.306;2022-07-15T10:48:25;2.50;;;0.80;;
11548;SDS011;61444;59.472;18.306;2022-07-15T10:50:36;2.67;;;0.70;;
11548;SDS011;61444;59.472;18.306;2022-07-15T10:52:46;2.10;;;0.90;;
11548;SDS011;61444;59.472;18.306;2022-07-15T10:55:15;1.10;;;0.70;;
11548;SDS011;61444;59.472;18.306;2022-07-15T11:00:00;2.30;;;1.00;;
11548;SDS011;61444;59.472;18.306;2022-07-15T11:02:13;2.47;;;0.90;;
11548;SDS011;61444;59.472;18.306;2022-07-15T11:04:28;1.93;;;1.00;;
11548;SDS011;61444;59.472;18.306;2022-07-15T11:09:42;1.80;;;1.00;;
11548;SDS011;61444;59.472;18.306;2022-07-15T11:11:55;1.53;;;0.90;;
11548;SDS011;61444;59.472;18.306;2022-07-15T11:16:55;1.53;;;0.87;;
11548;SDS011;61444;59.472;18.306;2022-07-15T11:19:04;1.13;;;0.90;;
11548;SDS011;61444;59.472;18.306;2022-07-15T11:21:22;1.90;;;0.90;;
11548;SDS011;61444;59.472;18.306;2022-07-15T11:23:31;0.70;;;0.70;;
11548;SDS011;61444;59.472;18.306;2022-07-15T11:25:40;2.37;;;0.90;;
11548;SDS011;61444;59.472;18.306;2022-07-15T11:27:59;2.63;;;1.00;;
11548;SDS011;61444;59.472;18.306;2022-07-15T11:30:08;2.03;;;1.00;;
11548;SDS011;61444;59.472;18.306;2022-07-15T11:32:19;2.53;;;0.77;;
11548;SDS011;61444;59.472;18.306;2022-07-15T11:34:35;5.57;;;0.83;;
11548;SDS011;61444;59.472;18.306;2022-07-15T11:36:48;1.17;;;0.80;;
11548;SDS011;61444;59.472;18.306;2022-07-15T11:39:05;1.43;;;0.80;;
11548;SDS011;61444;59.472;18.306;2022-07-15T11:41:14;2.23;;;0.90;;
11548;SDS011;61444;59.472;18.306;2022-07-15T11:43:41;2.13;;;0.73;;
11548;SDS011;61444;59.472;18.306;2022-07-15T11:46:07;0.80;;;0.80;;
11548;SDS011;61444;59.472;18.306;2022-07-15T11:48:15;0.90;;;0.90;;
11548;SDS011;61444;59.472;18.306;2022-07-15T11:50:24;0.90;;;0.90;;
11548;SDS011;61444;59.472;18.306;2022-07-15T11:52:35;2.17;;;1.00;;
11548;SDS011;61444;59.472;18.306;2022-07-15T11:54:44;2.00;;;0.90;;
11548;SDS011;61444;59.472;18.306;2022-07-15T11:56:52;2.10;;;0.70;;
11548;SDS011;61444;59.472;18.306;2022-07-15T11:59:01;1.40;;;0.80;;
11548;SDS011;61444;59.472;18.306;2022-07-15T12:01:10;2.57;;;0.90;;
11548;SDS011;61444;59.472;18.306;2022-07-15T12:03:20;1.13;;;0.83;;
11548;SDS011;61444;59.472;18.306;2022-07-15T12:05:30;2.50;;;1.03;;
11548;SDS011;61444;59.472;18.306;2022-07-15T12:07:41;3.83;;;1.10;;
11548;SDS011;61444;59.472;18.306;2022-07-15T12:09:50;2.07;;;0.93;;
11548;SDS011;61444;59.472;18.306;2022-07-15T12:12:01;1.60;;;1.20;;
11548;SDS011;61444;59.472;18.306;2022-07-15T12:14:11;1.00;;;0.90;;
11548;SDS011;61444;59.472;18.306;2022-07-15T12:16:29;0.93;;;0.93;;
11548;SDS011;61444;59.472;18.306;2022-07-15T12:18:39;1.77;;;0.90;;
11548;SDS011;61444;59.472;18.306;2022-07-15T12:20:48;1.70;;;0.90;;
11548;SDS011;61444;59.472;18.306;2022-07-15T12:23:08;1.60;;;1.03;;
11548;SDS011;61444;59.472;18.306;2022-07-15T12:25:19;1.80;;;0.90;;
11548;SDS011;61444;59.472;18.306;2022-07-15T12:27:31;0.90;;;0.90;;
11548;SDS011;61444;59.472;18.306;2022-07-15T12:29:40;1.47;;;0.80;;
11548;SDS011;61444;59.472;18.306;2022-07-15T12:32:10;2.37;;;0.90;;
11548;SDS011;61444;59.472;18.306;2022-07-15T12:34:19;1.20;;;0.90;;
11548;SDS011;61444;59.472;18.306;2022-07-15T12:36:30;0.90;;;0.90;;
11548;SDS011;61444;59.472;18.306;2022-07-15T12:38:42;4.90;;;0.90;;
11548;SDS011;61444;59.472;18.306;2022-07-15T12:40:56;0.80;;;0.80;;
11548;SDS011;61444;59.472;18.306;2022-07-15T12:43:13;0.87;;;0.87;;
11548;SDS011;61444;59.472;18.306;2022-07-15T12:45:22;1.00;;;0.93;;
11548;SDS011;61444;59.472;18.306;2022-07-15T12:47:32;2.43;;;0.93;;
11548;SDS011;61444;59.472;18.306;2022-07-15T12:49:44;2.67;;;0.80;;
11548;SDS011;61444;59.472;18.306;2022-07-15T12:51:53;3.03;;;0.90;;
11548;SDS011;61444;59.472;18.306;2022-07-15T12:54:06;1.17;;;0.80;;
11548;SDS011;61444;59.472;18.306;2022-07-15T12:56:18;1.70;;;0.80;;
11548;SDS011;61444;59.472;18.306;2022-07-15T12:58:29;0.93;;;0.80;;
11548;SDS011;61444;59.472;18.306;2022-07-15T13:00:44;2.73;;;1.10;;
11548;SDS011;61444;59.472;18.306;2022-07-15T13:02:57;1.47;;;0.80;;
11548;SDS011;61444;59.472;18.306;2022-07-15T13:05:10;2.67;;;1.00;;
11548;SDS011;61444;59.472;18.306;2022-07-15T13:07:19;1.20;;;0.80;;
11548;SDS011;61444;59.472;18.306;2022-07-15T13:09:31;0.83;;;0.80;;